sensor_id;sensor_type;location;lat;lon;timestamp;temperature;humidity
33988;DHT22;37428;53.580;-1.666;2023-07-22T00:03:58;14.10;87.80
33988;DHT22;37428;53.580;-1.666;2023-07-22T00:07:20;14.00;88.00
33988;DHT22;37428;53.580;-1.666;2023-07-22T00:10:22;14.00;88.60
33988;DHT22;37428;53.580;-1.666;2023-07-22T00:13:24;14.00;88.80
33988;DHT22;37428;53.580;-1.666;2023-07-22T00:16:39;13.90;88.30
33988;DHT22;37428;53.580;-1.666;2023-07-22T00:23:26;14.00;89.20
33988;DHT22;37428;53.580;-1.666;2023-07-22T00:26:40;14.00;88.90
33988;DHT22;37428;53.580;-1.666;2023-07-22T00:30:25;14.10;89.00
33988;DHT22;37428;53.580;-1.666;2023-07-22T00:33:32;14.00;88.70
33988;DHT22;37428;53.580;-1.666;2023-07-22T00:36:38;14.00;89.60
33988;DHT22;37428;53.580;-1.666;2023-07-22T00:39:47;14.00;90.00
33988;DHT22;37428;53.580;-1.666;2023-07-22T00:43:10;14.00;90.00
33988;DHT22;37428;53.580;-1.666;2023-07-22T00:46:14;13.90;88.80
33988;DHT22;37428;53.580;-1.666;2023-07-22T00:49:22;13.90;90.20
33988;DHT22;37428;53.580;-1.666;2023-07-22T00:52:31;13.80;90.00
33988;DHT22;37428;53.580;-1.666;2023-07-22T00:59:21;13.80;91.00
33988;DHT22;37428;53.580;-1.666;2023-07-22T01:02:31;13.80;90.40
33988;DHT22;37428;53.580;-1.666;2023-07-22T01:05:49;13.80;90.10
33988;DHT22;37428;53.580;-1.666;2023-07-22T01:09:11;13.80;90.10
33988;DHT22;37428;53.580;-1.666;2023-07-22T01:12:15;13.80;91.10
33988;DHT22;37428;53.580;-1.666;2023-07-22T01:19:05;13.70;91.10
33988;DHT22;37428;53.580;-1.666;2023-07-22T01:26:13;13.70;91.30
33988;DHT22;37428;53.580;-1.666;2023-07-22T01:29:33;13.60;91.20
33988;DHT22;37428;53.580;-1.666;2023-07-22T01:34:34;13.60;91.00
33988;DHT22;37428;53.580;-1.666;2023-07-22T01:42:05;13.60;91.20
33988;DHT22;37428;53.580;-1.666;2023-07-22T01:45:48;13.60;90.30
33988;DHT22;37428;53.580;-1.666;2023-07-22T01:48:03;13.60;90.90
33988;DHT22;37428;53.580;-1.666;2023-07-22T01:51:29;13.60;90.80
33988;DHT22;37428;53.580;-1.666;2023-07-22T01:56:08;13.60;90.10
33988;DHT22;37428;53.580;-1.666;2023-07-22T01:58:21;13.60;90.10
33988;DHT22;37428;53.580;-1.666;2023-07-22T02:01:40;13.60;90.30
33988;DHT22;37428;53.580;-1.666;2023-07-22T02:04:42;13.60;90.30
33988;DHT22;37428;53.580;-1.666;2023-07-22T02:08:07;13.60;90.50
33988;DHT22;37428;53.580;-1.666;2023-07-22T02:11:37;13.60;91.00
33988;DHT22;37428;53.580;-1.666;2023-07-22T02:14:40;13.60;90.50
33988;DHT22;37428;53.580;-1.666;2023-07-22T02:18:01;13.60;90.50
33988;DHT22;37428;53.580;-1.666;2023-07-22T02:21:06;13.60;90.40
33988;DHT22;37428;53.580;-1.666;2023-07-22T02:24:54;13.60;91.20
33988;DHT22;37428;53.580;-1.666;2023-07-22T02:27:54;13.60;90.80
33988;DHT22;37428;53.580;-1.666;2023-07-22T02:31:00;13.60;90.80
33988;DHT22;37428;53.580;-1.666;2023-07-22T02:34:30;13.60;91.10
33988;DHT22;37428;53.580;-1.666;2023-07-22T02:37:33;13.60;91.30
33988;DHT22;37428;53.580;-1.666;2023-07-22T02:40:43;13.60;91.40
33988;DHT22;37428;53.580;-1.666;2023-07-22T02:43:47;13.60;91.30
33988;DHT22;37428;53.580;-1.666;2023-07-22T02:50:32;13.60;91.20
33988;DHT22;37428;53.580;-1.666;2023-07-22T02:57:07;13.50;91.00
33988;DHT22;37428;53.580;-1.666;2023-07-22T03:00:09;13.40;90.90
33988;DHT22;37428;53.580;-1.666;2023-07-22T03:03:18;13.40;91.10
33988;DHT22;37428;53.580;-1.666;2023-07-22T03:06:34;13.40;91.00
33988;DHT22;37428;53.580;-1.666;2023-07-22T03:09:53;13.40;91.20
33988;DHT22;37428;53.580;-1.666;2023-07-22T03:13:20;13.40;91.00
33988;DHT22;37428;53.580;-1.666;2023-07-22T03:20:32;13.30;90.90
33988;DHT22;37428;53.580;-1.666;2023-07-22T03:23:47;13.30;91.10
33988;DHT22;37428;53.580;-1.666;2023-07-22T03:27:18;13.40;91.30
33988;DHT22;37428;53.580;-1.666;2023-07-22T03:30:34;13.40;91.00
33988;DHT22;37428;53.580;-1.666;2023-07-22T03:33:38;13.40;91.20
33988;DHT22;37428;53.580;-1.666;2023-07-22T03:37:11;13.30;91.20
33988;DHT22;37428;53.580;-1.666;2023-07-22T03:40:33;13.30;91.30
33988;DHT22;37428;53.580;-1.666;2023-07-22T03:43:54;13.30;92.00
33988;DHT22;37428;53.580;-1.666;2023-07-22T03:47:02;13.30;92.70
33988;DHT22;37428;53.580;-1.666;2023-07-22T03:50:35;13.30;92.60
33988;DHT22;37428;53.580;-1.666;2023-07-22T03:53:37;13.20;92.90
33988;DHT22;37428;53.580;-1.666;2023-07-22T03:56:55;13.10;93.70
33988;DHT22;37428;53.580;-1.666;2023-07-22T04:00:21;13.10;94.00
33988;DHT22;37428;53.580;-1.666;2023-07-22T04:03:53;13.10;94.10
33988;DHT22;37428;53.580;-1.666;2023-07-22T04:06:56;13.20;94.40
33988;DHT22;37428;53.580;-1.666;2023-07-22T04:10:20;13.20;94.60
33988;DHT22;37428;53.580;-1.666;2023-07-22T04:13:40;13.30;94.00
33988;DHT22;37428;53.580;-1.666;2023-07-22T04:20:18;13.30;93.50
33988;DHT22;37428;53.580;-1.666;2023-07-22T04:23:45;13.30;93.60
33988;DHT22;37428;53.580;-1.666;2023-07-22T04:27:02;13.30;93.30
33988;DHT22;37428;53.580;-1.666;2023-07-22T04:30:54;13.30;93.30
33988;DHT22;37428;53.580;-1.666;2023-07-22T04:35:26;13.30;92.70
33988;DHT22;37428;53.580;-1.666;2023-07-22T04:37:16;13.30;92.80
33988;DHT22;37428;53.580;-1.666;2023-07-22T04:40:34;13.30;93.00
33988;DHT22;37428;53.580;-1.666;2023-07-22T04:44:03;13.30;93.00
33988;DHT22;37428;53.580;-1.666;2023-07-22T04:47:32;13.30;93.00
33988;DHT22;37428;53.580;-1.666;2023-07-22T04:50:34;13.30;92.80
33988;DHT22;37428;53.580;-1.666;2023-07-22T04:53:36;13.30;90.90
33988;DHT22;37428;53.580;-1.666;2023-07-22T04:57:22;13.30;91.30
33988;DHT22;37428;53.580;-1.666;2023-07-22T05:00:31;13.30;91.40
33988;DHT22;37428;53.580;-1.666;2023-07-22T05:03:43;13.30;91.00
33988;DHT22;37428;53.580;-1.666;2023-07-22T05:07:02;13.30;90.90
33988;DHT22;37428;53.580;-1.666;2023-07-22T05:10:07;13.20;89.90
33988;DHT22;37428;53.580;-1.666;2023-07-22T05:13:12;13.20;89.60
33988;DHT22;37428;53.580;-1.666;2023-07-22T05:17:14;13.20;90.30
33988;DHT22;37428;53.580;-1.666;2023-07-22T05:23:34;13.20;90.60
33988;DHT22;37428;53.580;-1.666;2023-07-22T05:27:12;13.10;90.50
33988;DHT22;37428;53.580;-1.666;2023-07-22T05:30:30;13.20;91.40
33988;DHT22;37428;53.580;-1.666;2023-07-22T05:41:16;13.30;91.70
33988;DHT22;37428;53.580;-1.666;2023-07-22T05:44:37;13.30;91.10
33988;DHT22;37428;53.580;-1.666;2023-07-22T05:49:53;13.40;91.40
33988;DHT22;37428;53.580;-1.666;2023-07-22T05:51:17;13.40;90.80
33988;DHT22;37428;53.580;-1.666;2023-07-22T05:56:10;13.40;91.10
33988;DHT22;37428;53.580;-1.666;2023-07-22T05:58:05;13.50;90.70
33988;DHT22;37428;53.580;-1.666;2023-07-22T06:01:29;13.50;91.30
33988;DHT22;37428;53.580;-1.666;2023-07-22T06:04:32;13.50;91.70
33988;DHT22;37428;53.580;-1.666;2023-07-22T06:08:07;13.50;91.80
33988;DHT22;37428;53.580;-1.666;2023-07-22T06:11:02;13.50;91.70
33988;DHT22;37428;53.580;-1.666;2023-07-22T06:14:20;13.40;91.60
33988;DHT22;37428;53.580;-1.666;2023-07-22T06:17:37;13.40;92.60
33988;DHT22;37428;53.580;-1.666;2023-07-22T06:21:02;13.40;92.60
33988;DHT22;37428;53.580;-1.666;2023-07-22T06:24:43;13.40;93.20
33988;DHT22;37428;53.580;-1.666;2023-07-22T06:27:47;13.40;93.40
33988;DHT22;37428;53.580;-1.666;2023-07-22T06:32:26;13.40;93.50
33988;DHT22;37428;53.580;-1.666;2023-07-22T06:34:24;13.40;93.90
33988;DHT22;37428;53.580;-1.666;2023-07-22T06:37:32;13.40;93.60
33988;DHT22;37428;53.580;-1.666;2023-07-22T06:40:34;13.50;94.30
33988;DHT22;37428;53.580;-1.666;2023-07-22T06:43:39;13.50;94.40
33988;DHT22;37428;53.580;-1.666;2023-07-22T06:46:48;13.60;94.20
33988;DHT22;37428;53.580;-1.666;2023-07-22T06:49:53;13.60;94.30
33988;DHT22;37428;53.580;-1.666;2023-07-22T06:53:09;13.70;95.00
33988;DHT22;37428;53.580;-1.666;2023-07-22T06:56:18;13.70;94.40
33988;DHT22;37428;53.580;-1.666;2023-07-22T06:59:23;13.80;95.10
33988;DHT22;37428;53.580;-1.666;2023-07-22T07:02:47;13.90;94.30
33988;DHT22;37428;53.580;-1.666;2023-07-22T07:06:09;13.90;93.80
33988;DHT22;37428;53.580;-1.666;2023-07-22T07:14:35;14.00;92.80
33988;DHT22;37428;53.580;-1.666;2023-07-22T07:16:31;14.00;92.70
33988;DHT22;37428;53.580;-1.666;2023-07-22T07:23:40;14.00;93.00
33988;DHT22;37428;53.580;-1.666;2023-07-22T07:26:42;14.00;93.10
33988;DHT22;37428;53.580;-1.666;2023-07-22T07:29:51;14.00;93.70
33988;DHT22;37428;53.580;-1.666;2023-07-22T07:33:12;14.00;93.50
33988;DHT22;37428;53.580;-1.666;2023-07-22T07:36:39;14.00;93.40
33988;DHT22;37428;53.580;-1.666;2023-07-22T07:39:52;13.90;92.90
33988;DHT22;37428;53.580;-1.666;2023-07-22T07:43:06;13.90;93.30
33988;DHT22;37428;53.580;-1.666;2023-07-22T07:46:50;13.90;92.70
33988;DHT22;37428;53.580;-1.666;2023-07-22T07:50:10;13.90;93.10
33988;DHT22;37428;53.580;-1.666;2023-07-22T07:53:16;13.90;93.00
33988;DHT22;37428;53.580;-1.666;2023-07-22T07:56:29;13.80;93.10
33988;DHT22;37428;53.580;-1.666;2023-07-22T08:00:02;13.80;93.20
33988;DHT22;37428;53.580;-1.666;2023-07-22T08:02:58;13.80;93.70
33988;DHT22;37428;53.580;-1.666;2023-07-22T08:06:12;13.70;94.30
33988;DHT22;37428;53.580;-1.666;2023-07-22T08:09:14;13.70;94.60
33988;DHT22;37428;53.580;-1.666;2023-07-22T08:12:27;13.70;94.70
33988;DHT22;37428;53.580;-1.666;2023-07-22T08:15:29;13.70;94.50
33988;DHT22;37428;53.580;-1.666;2023-07-22T08:18:36;13.70;95.00
33988;DHT22;37428;53.580;-1.666;2023-07-22T08:22:08;13.60;95.10
33988;DHT22;37428;53.580;-1.666;2023-07-22T08:25:16;13.70;95.40
33988;DHT22;37428;53.580;-1.666;2023-07-22T08:28:32;13.80;95.50
33988;DHT22;37428;53.580;-1.666;2023-07-22T08:31:34;13.90;96.30
33988;DHT22;37428;53.580;-1.666;2023-07-22T08:34:38;13.90;95.50
33988;DHT22;37428;53.580;-1.666;2023-07-22T08:37:41;14.00;94.90
33988;DHT22;37428;53.580;-1.666;2023-07-22T08:41:13;14.10;95.10
33988;DHT22;37428;53.580;-1.666;2023-07-22T08:44:21;14.20;95.20
33988;DHT22;37428;53.580;-1.666;2023-07-22T08:48:15;14.30;94.50
33988;DHT22;37428;53.580;-1.666;2023-07-22T08:51:35;14.30;95.40
33988;DHT22;37428;53.580;-1.666;2023-07-22T08:54:50;14.40;95.50
33988;DHT22;37428;53.580;-1.666;2023-07-22T08:58:04;14.40;94.80
33988;DHT22;37428;53.580;-1.666;2023-07-22T09:01:17;14.30;95.10
33988;DHT22;37428;53.580;-1.666;2023-07-22T09:04:36;14.30;95.80
33988;DHT22;37428;53.580;-1.666;2023-07-22T09:15:09;14.30;96.10
33988;DHT22;37428;53.580;-1.666;2023-07-22T09:18:41;14.40;96.50
33988;DHT22;37428;53.580;-1.666;2023-07-22T09:21:52;14.40;96.00
33988;DHT22;37428;53.580;-1.666;2023-07-22T09:25:14;14.40;96.40
33988;DHT22;37428;53.580;-1.666;2023-07-22T09:28:24;14.40;96.50
33988;DHT22;37428;53.580;-1.666;2023-07-22T09:31:48;14.40;96.10
33988;DHT22;37428;53.580;-1.666;2023-07-22T09:35:08;14.40;96.50
33988;DHT22;37428;53.580;-1.666;2023-07-22T09:38:27;14.30;95.10
33988;DHT22;37428;53.580;-1.666;2023-07-22T09:41:43;14.30;95.70
33988;DHT22;37428;53.580;-1.666;2023-07-22T09:45:20;14.30;95.30
33988;DHT22;37428;53.580;-1.666;2023-07-22T09:48:41;14.30;95.10
33988;DHT22;37428;53.580;-1.666;2023-07-22T09:51:59;14.30;95.10
33988;DHT22;37428;53.580;-1.666;2023-07-22T09:55:06;14.30;95.40
33988;DHT22;37428;53.580;-1.666;2023-07-22T10:01:53;14.30;95.70
33988;DHT22;37428;53.580;-1.666;2023-07-22T10:05:41;14.40;95.90
33988;DHT22;37428;53.580;-1.666;2023-07-22T10:09:11;14.50;96.10
33988;DHT22;37428;53.580;-1.666;2023-07-22T10:12:16;14.50;96.20
33988;DHT22;37428;53.580;-1.666;2023-07-22T10:15:29;14.60;96.50
33988;DHT22;37428;53.580;-1.666;2023-07-22T10:20:13;14.60;95.90
33988;DHT22;37428;53.580;-1.666;2023-07-22T10:22:40;14.70;95.90
33988;DHT22;37428;53.580;-1.666;2023-07-22T10:25:46;14.70;95.30
33988;DHT22;37428;53.580;-1.666;2023-07-22T10:29:04;14.80;95.60
33988;DHT22;37428;53.580;-1.666;2023-07-22T10:32:08;14.80;95.60
33988;DHT22;37428;53.580;-1.666;2023-07-22T10:35:42;14.90;95.80
33988;DHT22;37428;53.580;-1.666;2023-07-22T10:39:00;14.90;95.70
33988;DHT22;37428;53.580;-1.666;2023-07-22T10:42:24;15.00;96.30
33988;DHT22;37428;53.580;-1.666;2023-07-22T10:45:53;15.00;96.00
33988;DHT22;37428;53.580;-1.666;2023-07-22T10:49:12;15.00;95.50
33988;DHT22;37428;53.580;-1.666;2023-07-22T10:52:52;15.00;95.20
33988;DHT22;37428;53.580;-1.666;2023-07-22T10:56:13;15.00;95.10
33988;DHT22;37428;53.580;-1.666;2023-07-22T10:59:34;15.10;95.00
33988;DHT22;37428;53.580;-1.666;2023-07-22T11:02:36;15.10;95.00
33988;DHT22;37428;53.580;-1.666;2023-07-22T11:05:49;15.10;95.40
33988;DHT22;37428;53.580;-1.666;2023-07-22T11:12:38;15.20;95.40
33988;DHT22;37428;53.580;-1.666;2023-07-22T11:15:50;15.20;95.20
33988;DHT22;37428;53.580;-1.666;2023-07-22T11:19:04;15.20;95.40
33988;DHT22;37428;53.580;-1.666;2023-07-22T11:22:12;15.30;95.90
33988;DHT22;37428;53.580;-1.666;2023-07-22T11:25:18;15.20;96.20
33988;DHT22;37428;53.580;-1.666;2023-07-22T11:28:43;15.20;95.40
33988;DHT22;37428;53.580;-1.666;2023-07-22T11:31:58;15.20;95.50
33988;DHT22;37428;53.580;-1.666;2023-07-22T11:35:29;15.20;95.60
33988;DHT22;37428;53.580;-1.666;2023-07-22T11:38:33;15.20;95.50
33988;DHT22;37428;53.580;-1.666;2023-07-22T11:41:37;15.30;94.30
33988;DHT22;37428;53.580;-1.666;2023-07-22T11:44:45;15.30;94.70
33988;DHT22;37428;53.580;-1.666;2023-07-22T11:47:53;15.40;94.20
33988;DHT22;37428;53.580;-1.666;2023-07-22T11:54:43;15.50;94.40
33988;DHT22;37428;53.580;-1.666;2023-07-22T11:58:10;15.50;94.90
33988;DHT22;37428;53.580;-1.666;2023-07-22T12:01:17;15.60;95.00
33988;DHT22;37428;53.580;-1.666;2023-07-22T12:04:37;15.70;94.60
33988;DHT22;37428;53.580;-1.666;2023-07-22T12:11:54;16.10;95.10
33988;DHT22;37428;53.580;-1.666;2023-07-22T12:15:00;16.10;93.50
33988;DHT22;37428;53.580;-1.666;2023-07-22T12:18:38;16.10;92.60
33988;DHT22;37428;53.580;-1.666;2023-07-22T12:21:42;16.30;92.90
33988;DHT22;37428;53.580;-1.666;2023-07-22T12:24:56;16.40;92.80
33988;DHT22;37428;53.580;-1.666;2023-07-22T12:29:47;16.50;91.40
33988;DHT22;37428;53.580;-1.666;2023-07-22T12:31:51;16.60;90.50
33988;DHT22;37428;53.580;-1.666;2023-07-22T12:35:16;16.70;90.60
33988;DHT22;37428;53.580;-1.666;2023-07-22T12:38:41;16.70;90.30
33988;DHT22;37428;53.580;-1.666;2023-07-22T12:41:51;16.70;90.00
33988;DHT22;37428;53.580;-1.666;2023-07-22T12:44:58;16.70;89.80
33988;DHT22;37428;53.580;-1.666;2023-07-22T12:48:28;16.70;89.40
33988;DHT22;37428;53.580;-1.666;2023-07-22T12:51:36;16.70;89.60
33988;DHT22;37428;53.580;-1.666;2023-07-22T12:54:40;16.70;90.10
33988;DHT22;37428;53.580;-1.666;2023-07-22T12:57:42;16.70;89.40
33988;DHT22;37428;53.580;-1.666;2023-07-22T13:00:49;16.70;89.10
33988;DHT22;37428;53.580;-1.666;2023-07-22T13:04:14;16.70;89.10
33988;DHT22;37428;53.580;-1.666;2023-07-22T13:07:20;16.70;88.30
33988;DHT22;37428;53.580;-1.666;2023-07-22T13:10:37;16.70;88.30
33988;DHT22;37428;53.580;-1.666;2023-07-22T13:13:51;16.70;87.60
33988;DHT22;37428;53.580;-1.666;2023-07-22T13:17:11;16.70;88.20
33988;DHT22;37428;53.580;-1.666;2023-07-22T13:20:23;16.70;87.90
33988;DHT22;37428;53.580;-1.666;2023-07-22T13:23:27;16.80;87.90
33988;DHT22;37428;53.580;-1.666;2023-07-22T13:26:31;16.80;88.60
33988;DHT22;37428;53.580;-1.666;2023-07-22T13:29:34;16.80;88.50
33988;DHT22;37428;53.580;-1.666;2023-07-22T13:32:38;16.90;88.10
33988;DHT22;37428;53.580;-1.666;2023-07-22T13:35:43;17.00;88.20
33988;DHT22;37428;53.580;-1.666;2023-07-22T13:38:49;17.00;86.90
33988;DHT22;37428;53.580;-1.666;2023-07-22T13:41:59;17.00;87.00
33988;DHT22;37428;53.580;-1.666;2023-07-22T13:48:34;16.80;87.30
33988;DHT22;37428;53.580;-1.666;2023-07-22T13:51:39;16.80;87.60
33988;DHT22;37428;53.580;-1.666;2023-07-22T13:54:44;16.70;87.60
33988;DHT22;37428;53.580;-1.666;2023-07-22T13:57:46;16.60;86.80
33988;DHT22;37428;53.580;-1.666;2023-07-22T14:00:48;16.70;87.40
33988;DHT22;37428;53.580;-1.666;2023-07-22T14:05:39;16.70;88.00
33988;DHT22;37428;53.580;-1.666;2023-07-22T14:07:31;16.70;88.30
33988;DHT22;37428;53.580;-1.666;2023-07-22T14:10:39;16.70;88.00
33988;DHT22;37428;53.580;-1.666;2023-07-22T14:13:55;16.70;87.60
33988;DHT22;37428;53.580;-1.666;2023-07-22T14:17:08;16.70;87.70
33988;DHT22;37428;53.580;-1.666;2023-07-22T14:20:18;16.80;87.70
33988;DHT22;37428;53.580;-1.666;2023-07-22T14:23:58;16.80;87.20
33988;DHT22;37428;53.580;-1.666;2023-07-22T14:27:14;16.70;86.90
33988;DHT22;37428;53.580;-1.666;2023-07-22T14:30:17;16.70;86.80
33988;DHT22;37428;53.580;-1.666;2023-07-22T14:33:22;16.80;86.90
33988;DHT22;37428;53.580;-1.666;2023-07-22T14:36:25;16.80;86.30
33988;DHT22;37428;53.580;-1.666;2023-07-22T14:39:28;16.90;86.80
33988;DHT22;37428;53.580;-1.666;2023-07-22T14:42:33;17.00;86.10
33988;DHT22;37428;53.580;-1.666;2023-07-22T14:46:05;17.10;85.80
33988;DHT22;37428;53.580;-1.666;2023-07-22T14:48:58;17.30;85.90
33988;DHT22;37428;53.580;-1.666;2023-07-22T14:52:11;17.50;86.10
33988;DHT22;37428;53.580;-1.666;2023-07-22T14:55:13;17.50;84.90
33988;DHT22;37428;53.580;-1.666;2023-07-22T14:58:21;17.40;84.90
33988;DHT22;37428;53.580;-1.666;2023-07-22T15:01:54;17.30;84.90
33988;DHT22;37428;53.580;-1.666;2023-07-22T15:04:58;17.40;85.50
33988;DHT22;37428;53.580;-1.666;2023-07-22T15:08:20;17.50;85.40
33988;DHT22;37428;53.580;-1.666;2023-07-22T15:11:25;17.60;85.50
33988;DHT22;37428;53.580;-1.666;2023-07-22T15:14:47;17.70;84.60
33988;DHT22;37428;53.580;-1.666;2023-07-22T15:17:50;17.70;84.50
33988;DHT22;37428;53.580;-1.666;2023-07-22T15:20:53;17.60;83.50
33988;DHT22;37428;53.580;-1.666;2023-07-22T15:24:10;17.70;84.90
33988;DHT22;37428;53.580;-1.666;2023-07-22T15:27:33;17.70;84.90
33988;DHT22;37428;53.580;-1.666;2023-07-22T15:30:55;17.80;84.40
33988;DHT22;37428;53.580;-1.666;2023-07-22T15:34:13;18.00;84.10
33988;DHT22;37428;53.580;-1.666;2023-07-22T15:37:38;18.10;83.90
33988;DHT22;37428;53.580;-1.666;2023-07-22T15:42:16;18.10;83.90
33988;DHT22;37428;53.580;-1.666;2023-07-22T15:44:06;18.00;83.50
33988;DHT22;37428;53.580;-1.666;2023-07-22T15:47:34;18.10;84.00
33988;DHT22;37428;53.580;-1.666;2023-07-22T15:50:50;18.10;83.90
33988;DHT22;37428;53.580;-1.666;2023-07-22T15:54:09;18.20;84.10
33988;DHT22;37428;53.580;-1.666;2023-07-22T15:57:49;18.20;84.00
33988;DHT22;37428;53.580;-1.666;2023-07-22T16:00:58;18.10;84.10
33988;DHT22;37428;53.580;-1.666;2023-07-22T16:04:21;18.00;84.30
33988;DHT22;37428;53.580;-1.666;2023-07-22T16:07:39;17.90;84.80
33988;DHT22;37428;53.580;-1.666;2023-07-22T16:11:29;17.90;85.40
33988;DHT22;37428;53.580;-1.666;2023-07-22T16:14:24;17.90;84.50
33988;DHT22;37428;53.580;-1.666;2023-07-22T16:17:32;17.90;84.30
33988;DHT22;37428;53.580;-1.666;2023-07-22T16:20:35;18.10;84.80
33988;DHT22;37428;53.580;-1.666;2023-07-22T16:24:22;18.10;85.10
33988;DHT22;37428;53.580;-1.666;2023-07-22T16:27:32;18.00;84.30
33988;DHT22;37428;53.580;-1.666;2023-07-22T16:32:09;17.90;84.80
33988;DHT22;37428;53.580;-1.666;2023-07-22T16:34:02;17.90;84.50
33988;DHT22;37428;53.580;-1.666;2023-07-22T16:37:09;17.80;85.40
33988;DHT22;37428;53.580;-1.666;2023-07-22T16:40:22;17.70;85.90
33988;DHT22;37428;53.580;-1.666;2023-07-22T16:43:36;17.60;87.00
33988;DHT22;37428;53.580;-1.666;2023-07-22T16:46:48;17.50;86.80
33988;DHT22;37428;53.580;-1.666;2023-07-22T16:49:52;17.40;87.60
33988;DHT22;37428;53.580;-1.666;2023-07-22T16:52:57;17.40;87.70
33988;DHT22;37428;53.580;-1.666;2023-07-22T16:56:21;17.40;88.40
33988;DHT22;37428;53.580;-1.666;2023-07-22T16:59:39;17.30;88.20
33988;DHT22;37428;53.580;-1.666;2023-07-22T17:02:44;17.30;89.00
33988;DHT22;37428;53.580;-1.666;2023-07-22T17:06:00;17.30;90.00
33988;DHT22;37428;53.580;-1.666;2023-07-22T17:09:05;17.20;90.20
33988;DHT22;37428;53.580;-1.666;2023-07-22T17:12:07;17.20;90.70
33988;DHT22;37428;53.580;-1.666;2023-07-22T17:15:12;17.20;91.10
33988;DHT22;37428;53.580;-1.666;2023-07-22T17:18:35;17.20;91.10
33988;DHT22;37428;53.580;-1.666;2023-07-22T17:21:38;17.20;91.80
33988;DHT22;37428;53.580;-1.666;2023-07-22T17:24:42;17.20;91.30
33988;DHT22;37428;53.580;-1.666;2023-07-22T17:27:44;17.10;92.40
33988;DHT22;37428;53.580;-1.666;2023-07-22T17:30:47;17.10;92.30
33988;DHT22;37428;53.580;-1.666;2023-07-22T17:33:51;17.10;92.80
33988;DHT22;37428;53.580;-1.666;2023-07-22T17:37:10;17.20;92.80
33988;DHT22;37428;53.580;-1.666;2023-07-22T17:40:30;17.20;92.80
33988;DHT22;37428;53.580;-1.666;2023-07-22T17:43:58;17.20;92.80
33988;DHT22;37428;53.580;-1.666;2023-07-22T17:47:03;17.20;93.30
33988;DHT22;37428;53.580;-1.666;2023-07-22T17:50:06;17.20;93.60
33988;DHT22;37428;53.580;-1.666;2023-07-22T17:53:08;17.30;93.50
33988;DHT22;37428;53.580;-1.666;2023-07-22T17:56:14;17.30;93.30
33988;DHT22;37428;53.580;-1.666;2023-07-22T17:59:17;17.40;93.20
33988;DHT22;37428;53.580;-1.666;2023-07-22T18:02:26;17.40;93.10
33988;DHT22;37428;53.580;-1.666;2023-07-22T18:05:29;17.30;93.70
33988;DHT22;37428;53.580;-1.666;2023-07-22T18:08:55;17.30;94.20
33988;DHT22;37428;53.580;-1.666;2023-07-22T18:12:04;17.30;94.90
33988;DHT22;37428;53.580;-1.666;2023-07-22T18:15:09;17.30;95.10
33988;DHT22;37428;53.580;-1.666;2023-07-22T18:18:27;17.30;95.00
33988;DHT22;37428;53.580;-1.666;2023-07-22T18:21:41;17.30;95.30
33988;DHT22;37428;53.580;-1.666;2023-07-22T18:24:45;17.30;95.20
33988;DHT22;37428;53.580;-1.666;2023-07-22T18:31:57;17.30;95.30
33988;DHT22;37428;53.580;-1.666;2023-07-22T18:34:56;17.20;95.60
33988;DHT22;37428;53.580;-1.666;2023-07-22T18:38:05;17.20;95.70
33988;DHT22;37428;53.580;-1.666;2023-07-22T18:41:13;17.30;96.20
33988;DHT22;37428;53.580;-1.666;2023-07-22T18:44:34;17.30;95.70
33988;DHT22;37428;53.580;-1.666;2023-07-22T18:48:14;17.40;95.70
33988;DHT22;37428;53.580;-1.666;2023-07-22T18:51:22;17.40;95.50
33988;DHT22;37428;53.580;-1.666;2023-07-22T18:54:51;17.40;94.80
33988;DHT22;37428;53.580;-1.666;2023-07-22T18:57:55;17.40;94.60
33988;DHT22;37428;53.580;-1.666;2023-07-22T19:04:30;17.50;94.80
33988;DHT22;37428;53.580;-1.666;2023-07-22T19:07:34;17.40;95.00
33988;DHT22;37428;53.580;-1.666;2023-07-22T19:10:58;17.50;94.50
33988;DHT22;37428;53.580;-1.666;2023-07-22T19:14:11;17.50;94.60
33988;DHT22;37428;53.580;-1.666;2023-07-22T19:17:32;17.60;94.50
33988;DHT22;37428;53.580;-1.666;2023-07-22T19:20:40;17.50;94.20
33988;DHT22;37428;53.580;-1.666;2023-07-22T19:23:44;17.50;94.40
33988;DHT22;37428;53.580;-1.666;2023-07-22T19:26:46;17.40;94.50
33988;DHT22;37428;53.580;-1.666;2023-07-22T19:29:58;17.40;94.60
33988;DHT22;37428;53.580;-1.666;2023-07-22T19:33:27;17.40;94.90
33988;DHT22;37428;53.580;-1.666;2023-07-22T19:36:45;17.40;95.10
33988;DHT22;37428;53.580;-1.666;2023-07-22T19:40:03;17.30;95.30
33988;DHT22;37428;53.580;-1.666;2023-07-22T19:43:19;17.30;95.50
33988;DHT22;37428;53.580;-1.666;2023-07-22T19:46:26;17.40;95.40
33988;DHT22;37428;53.580;-1.666;2023-07-22T19:51:03;17.40;95.40
33988;DHT22;37428;53.580;-1.666;2023-07-22T19:52:55;17.40;95.10
33988;DHT22;37428;53.580;-1.666;2023-07-22T19:55:59;17.40;95.20
33988;DHT22;37428;53.580;-1.666;2023-07-22T19:59:13;17.40;95.50
33988;DHT22;37428;53.580;-1.666;2023-07-22T20:02:15;17.40;95.80
33988;DHT22;37428;53.580;-1.666;2023-07-22T20:05:39;17.30;96.20
33988;DHT22;37428;53.580;-1.666;2023-07-22T20:08:44;17.20;96.60
33988;DHT22;37428;53.580;-1.666;2023-07-22T20:12:03;17.20;96.60
33988;DHT22;37428;53.580;-1.666;2023-07-22T20:15:13;17.10;96.50
33988;DHT22;37428;53.580;-1.666;2023-07-22T20:18:15;17.10;97.00
33988;DHT22;37428;53.580;-1.666;2023-07-22T20:21:19;17.10;97.40
33988;DHT22;37428;53.580;-1.666;2023-07-22T20:24:26;17.10;97.60
33988;DHT22;37428;53.580;-1.666;2023-07-22T20:27:42;17.10;97.50
33988;DHT22;37428;53.580;-1.666;2023-07-22T20:30:47;17.00;97.10
33988;DHT22;37428;53.580;-1.666;2023-07-22T20:33:49;17.00;97.50
33988;DHT22;37428;53.580;-1.666;2023-07-22T20:36:51;16.90;98.50
33988;DHT22;37428;53.580;-1.666;2023-07-22T20:40:06;16.90;99.20
33988;DHT22;37428;53.580;-1.666;2023-07-22T20:43:09;16.80;99.90
33988;DHT22;37428;53.580;-1.666;2023-07-22T20:46:18;16.80;99.90
33988;DHT22;37428;53.580;-1.666;2023-07-22T20:49:34;16.80;99.90
33988;DHT22;37428;53.580;-1.666;2023-07-22T20:52:37;16.80;99.90
33988;DHT22;37428;53.580;-1.666;2023-07-22T20:55:43;16.80;99.90
33988;DHT22;37428;53.580;-1.666;2023-07-22T20:58:45;16.80;99.90
33988;DHT22;37428;53.580;-1.666;2023-07-22T21:02:00;16.80;99.90
33988;DHT22;37428;53.580;-1.666;2023-07-22T21:05:04;16.70;99.90
33988;DHT22;37428;53.580;-1.666;2023-07-22T21:08:07;16.80;99.90
33988;DHT22;37428;53.580;-1.666;2023-07-22T21:11:10;16.70;99.90
33988;DHT22;37428;53.580;-1.666;2023-07-22T21:14:14;16.70;99.90
33988;DHT22;37428;53.580;-1.666;2023-07-22T21:17:18;16.70;99.90
33988;DHT22;37428;53.580;-1.666;2023-07-22T21:20:43;16.70;99.90
33988;DHT22;37428;53.580;-1.666;2023-07-22T21:24:00;16.70;99.90
33988;DHT22;37428;53.580;-1.666;2023-07-22T21:27:04;16.60;99.90
33988;DHT22;37428;53.580;-1.666;2023-07-22T21:30:13;16.60;99.90
33988;DHT22;37428;53.580;-1.666;2023-07-22T21:33:17;16.60;99.90
33988;DHT22;37428;53.580;-1.666;2023-07-22T21:36:21;16.50;99.90